38NY weather

Greenlawn Farm Airport
Dundee, New York, United States

Public forecast

Using degrees Fahrenheit for public forecast. Weather courtesy of forecast.io.

METAR (pilot weather report)

Closest report is Penn Yan Airport, 6.8 nm (12.5 km) NW. Retrieved 2019/07/23 15:53 UTC (48 minutes ago):

KPEO 231553Z AUTO VRB03KT 10SM FEW034 FEW047 23/13 A2993 RMK AO2 SLP128 T02330133

TAF (pilot weather forecast)

Closest forecast is Ithaca Tompkins Regional Airport, 22.4 nm (41.4 km) E. Retrieved 2019/07/23 12:40 UTC (4 hours ago):

TAF KITH 231138Z 2312/2412 34005KT P6SM BKN060 FM231600 33007KT P6SM SCT060 FM240000 VRB03KT P6SM FEW060 SCT250